»·PEaware :: UAL5920 KJAC-KDEN

UAL5920 :: KJAC-KDEN

FLIGHT INFORMATION

Flight Status: Arrived
Operator:
United Airlines
More flights by this operator :: More flights under this callsign
Pilot: Josh T. (20631)
Aircraft: AIRBUS A320
(A320)
More flights by this aircraft type
Origin: KJAC Jackson Hole
United States
Destination: KDEN Denver Intl
United States
More flights between these airports :: More routes between these airports
Route: +GEYSR5 NALSI SWEAT TOFUU FLATI1
File this flight plan on PilotEdge
Remarks:
Altitude:
(Current/Filed)
35,000ft
Speed:
(Current/Filed)
444kts
Departed: 15-Apr-20 12:37 PM
Arrived: 15-Apr-20 01:34 PM
Distance/Time
Traveled:
352nm/0:57
Distance/Time
To Go:
Arrived

Flight Plot

Page will automatically refresh every two minutes.

Flight plan parsing failed; only flown route is shown


Map Options




Map Legend


Flown Route
Filed Route
Departure Airport
Arrival Airport
Navaid (VOR, NDB)
Fix

Horizontal Profiles

Position Reports

Time Latitude Longitude Heading Altitude Ground
Speed
15-Apr-20 11:17 43.602745 -110.737546 109 6465ft 0kts
15-Apr-20 11:18 43.602745 -110.737546 109 6465ft 0kts
15-Apr-20 11:19 43.602745 -110.737546 109 6465ft 0kts
15-Apr-20 11:20 43.602745 -110.737546 109 6465ft 0kts
15-Apr-20 11:21 43.602745 -110.737546 109 6465ft 0kts
15-Apr-20 11:22 43.602745 -110.737546 109 6465ft 0kts
15-Apr-20 11:23 43.602745 -110.737546 109 6465ft 0kts
15-Apr-20 11:24 43.602745 -110.737546 109 6465ft 0kts
15-Apr-20 11:25 43.602745 -110.737546 109 6465ft 0kts
15-Apr-20 11:26 43.602745 -110.737546 109 6465ft 0kts
15-Apr-20 11:27 43.602745 -110.737546 109 6465ft 0kts
15-Apr-20 11:28 43.602745 -110.737546 109 6465ft 0kts
15-Apr-20 11:29 43.602745 -110.737546 109 6465ft 0kts
15-Apr-20 11:30 43.602745 -110.737546 109 6465ft 0kts
15-Apr-20 11:31 43.602745 -110.737546 109 6465ft 0kts
15-Apr-20 11:32 43.602745 -110.737546 109 6465ft 0kts
15-Apr-20 11:33 43.602745 -110.737546 109 6465ft 0kts
15-Apr-20 11:34 43.602745 -110.737546 109 6465ft 0kts
15-Apr-20 11:35 43.602745 -110.737546 109 6465ft 0kts
15-Apr-20 11:36 43.602745 -110.737546 109 6465ft 0kts
15-Apr-20 11:37 43.602745 -110.737546 109 6465ft 0kts
15-Apr-20 11:38 43.602745 -110.737546 109 6465ft 0kts
15-Apr-20 11:39 43.602745 -110.737546 109 6465ft 0kts
15-Apr-20 11:40 43.602745 -110.737546 109 6465ft 0kts
15-Apr-20 11:41 43.602745 -110.737546 109 6465ft 0kts
15-Apr-20 11:43 43.602745 -110.737546 109 6465ft 0kts
15-Apr-20 11:44 43.602745 -110.737546 109 6465ft 0kts
15-Apr-20 11:45 43.602745 -110.737546 109 6465ft 0kts
15-Apr-20 11:46 43.602745 -110.737546 109 6465ft 0kts
15-Apr-20 11:47 43.602745 -110.737546 109 6465ft 0kts
15-Apr-20 11:48 43.602745 -110.737546 109 6465ft 0kts
15-Apr-20 11:49 43.602745 -110.737546 109 6465ft 0kts
15-Apr-20 11:50 43.602745 -110.737546 109 6465ft 0kts
15-Apr-20 11:51 43.602745 -110.737546 109 6465ft 0kts
15-Apr-20 11:52 43.602745 -110.737546 109 6465ft 0kts
15-Apr-20 11:53 43.602745 -110.737546 109 6465ft 0kts
15-Apr-20 11:54 43.602745 -110.737546 109 6465ft 0kts
15-Apr-20 11:55 43.602745 -110.737546 109 6465ft 0kts
15-Apr-20 11:56 43.602745 -110.737546 109 6465ft 0kts
15-Apr-20 11:57 43.602745 -110.737546 109 6465ft 0kts
15-Apr-20 11:58 43.602745 -110.737546 109 6465ft 0kts
15-Apr-20 11:59 43.602745 -110.737546 109 6465ft 0kts
15-Apr-20 12:00 43.602745 -110.737546 109 6465ft 0kts
15-Apr-20 12:00 43.602745 -110.737546 109 6465ft 0kts
15-Apr-20 12:01 43.602745 -110.737546 109 6465ft 0kts
15-Apr-20 12:03 43.602745 -110.737546 109 6465ft 0kts
15-Apr-20 12:03 43.602745 -110.737546 109 6465ft 0kts
15-Apr-20 12:04 43.602745 -110.737546 109 6465ft 0kts
15-Apr-20 12:05 43.602745 -110.737546 109 6465ft 0kts
15-Apr-20 12:07 43.602745 -110.737546 109 6465ft 0kts
15-Apr-20 12:07 43.602745 -110.737546 109 6465ft 0kts
15-Apr-20 12:08 43.602745 -110.737546 109 6465ft 0kts
15-Apr-20 12:09 43.602745 -110.737546 109 6465ft 0kts
15-Apr-20 12:10 43.602745 -110.737546 109 6465ft 0kts
15-Apr-20 12:11 43.602745 -110.737546 109 6465ft 0kts
15-Apr-20 12:12 43.602745 -110.737546 109 6465ft 0kts
15-Apr-20 12:13 43.602745 -110.737546 109 6465ft 0kts
15-Apr-20 12:14 43.602745 -110.737546 109 6465ft 0kts
15-Apr-20 12:15 43.602745 -110.737546 109 6465ft 0kts
15-Apr-20 12:16 43.602745 -110.737546 109 6465ft 0kts
15-Apr-20 12:17 43.602745 -110.737546 109 6465ft 0kts
15-Apr-20 12:18 43.602745 -110.737546 109 6465ft 0kts
15-Apr-20 12:19 43.602745 -110.737546 109 6465ft 0kts
15-Apr-20 12:20 43.602745 -110.737546 109 6465ft 0kts
15-Apr-20 12:21 43.602745 -110.737546 109 6465ft 0kts
15-Apr-20 12:22 43.602745 -110.737546 109 6465ft 0kts
15-Apr-20 12:23 43.602745 -110.737546 109 6465ft 0kts
15-Apr-20 12:24 43.602745 -110.737546 109 6465ft 0kts
15-Apr-20 12:25 43.602745 -110.737546 109 6465ft 0kts
15-Apr-20 12:26 43.602737 -110.738281 50 6465ft 2kts
15-Apr-20 12:27 43.602528 -110.738493 19 6465ft 1kts
15-Apr-20 12:28 43.602528 -110.738493 19 6465ft 0kts
15-Apr-20 12:29 43.602529 -110.738492 19 6465ft 0kts
15-Apr-20 12:30 43.602531 -110.738492 19 6465ft 0kts
15-Apr-20 12:31 43.602051 -110.738725 201 6465ft 11kts
15-Apr-20 12:32 43.599099 -110.740307 239 6465ft 0kts
15-Apr-20 12:33 43.599083 -110.740346 239 6465ft 2kts
15-Apr-20 12:34 43.599279 -110.741616 314 6465ft 5kts
15-Apr-20 12:36 43.675438 -110.699894 42 9151ft 218kts
15-Apr-20 12:37 43.731150 -110.644575 27 10467ft 290kts
15-Apr-20 12:38 43.805583 -110.576852 50 12060ft 351kts
15-Apr-20 12:39 43.800354 -110.449277 131 14447ft 370kts
15-Apr-20 12:40 43.727689 -110.344121 132 16627ft 385kts
15-Apr-20 12:41 43.654890 -110.232097 133 18666ft 398kts
15-Apr-20 12:42 43.578809 -110.117395 132 20645ft 412kts
15-Apr-20 12:43 43.500194 -109.998885 133 22469ft 426kts
15-Apr-20 12:44 43.418702 -109.876914 133 24069ft 439kts
15-Apr-20 12:45 43.334555 -109.751227 133 25409ft 455kts
15-Apr-20 12:46 43.246865 -109.620895 133 26627ft 471kts
15-Apr-20 12:47 43.156370 -109.486890 134 27759ft 486kts
15-Apr-20 12:48 43.063101 -109.349569 134 28839ft 500kts
15-Apr-20 12:49 42.967010 -109.208849 134 29868ft 514kts
15-Apr-20 12:50 42.868708 -109.065383 135 31110ft 519kts
15-Apr-20 12:51 42.769490 -108.921505 135 32377ft 522kts
15-Apr-20 12:52 42.669343 -108.777071 135 33581ft 525kts
15-Apr-20 12:53 42.569190 -108.633054 135 34860ft 524kts
15-Apr-20 12:54 42.469800 -108.491070 135 35046ft 517kts
15-Apr-20 12:55 42.366027 -108.355596 140 35041ft 516kts
15-Apr-20 12:56 42.260423 -108.222973 139 35067ft 520kts
15-Apr-20 12:57 42.154882 -108.091030 140 35051ft 516kts
15-Apr-20 12:58 42.049509 -107.959816 140 34971ft 514kts
15-Apr-20 12:59 41.944408 -107.829532 140 34964ft 515kts
15-Apr-20 13:00 41.838716 -107.699339 140 34963ft 518kts
15-Apr-20 13:01 41.739675 -107.557825 133 35052ft 521kts
15-Apr-20 13:02 41.643154 -107.414064 134 35049ft 518kts
15-Apr-20 13:03 41.547073 -107.271681 134 34975ft 516kts
15-Apr-20 13:04 41.450409 -107.129553 134 34971ft 516kts
15-Apr-20 13:05 41.353886 -106.987762 134 35015ft 517kts
15-Apr-20 13:06 41.256889 -106.846188 134 35063ft 516kts
15-Apr-20 13:07 41.160488 -106.705893 134 35029ft 514kts
15-Apr-20 13:08 41.063816 -106.566066 134 34979ft 514kts
15-Apr-20 13:09 40.967025 -106.426571 135 34986ft 516kts
15-Apr-20 13:10 40.869708 -106.287092 135 35058ft 516kts
15-Apr-20 13:11 40.798652 -106.122216 112 35052ft 519kts
15-Apr-20 13:12 40.737955 -105.949497 115 34947ft 518kts
15-Apr-20 13:13 40.676314 -105.778852 114 32421ft 514kts
15-Apr-20 13:14 40.616328 -105.611331 114 29537ft 495kts
15-Apr-20 13:15 40.558247 -105.451794 114 26654ft 472kts
15-Apr-20 13:16 40.502755 -105.299588 114 23768ft 450kts
15-Apr-20 13:17 40.443217 -105.160972 141 20854ft 426kts
15-Apr-20 13:18 40.347871 -105.078281 147 18498ft 389kts
15-Apr-20 13:19 40.266527 -105.001119 147 17389ft 344kts
15-Apr-20 13:20 40.189781 -104.930815 149 16097ft 333kts
15-Apr-20 13:21 40.106855 -104.881414 160 14885ft 324kts
15-Apr-20 13:22 40.024862 -104.835256 159 13709ft 317kts
15-Apr-20 13:23 39.943014 -104.802884 184 12572ft 300kts
15-Apr-20 13:24 39.861149 -104.807399 184 11598ft 285kts
15-Apr-20 13:25 39.786002 -104.809074 184 10675ft 264kts
15-Apr-20 13:26 39.713532 -104.811116 184 9414ft 254kts
15-Apr-20 13:27 39.652329 -104.782146 114 8146ft 252kts
15-Apr-20 13:28 39.662732 -104.699955 41 7154ft 230kts
15-Apr-20 13:29 39.720753 -104.697797 359 7050ft 209kts
15-Apr-20 13:30 39.774197 -104.697485 1 7011ft 172kts
15-Apr-20 13:31 39.815469 -104.697008 359 6137ft 127kts
15-Apr-20 13:32 39.851709 -104.696620 0 5495ft 129kts
15-Apr-20 13:33 39.871404 -104.696376 4 5445ft 30kts
15-Apr-20 13:34 39.873933 -104.695019 73 5445ft 4kts
15-Apr-20 13:35 39.871335 -104.694194 181 5445ft 17kts
15-Apr-20 13:36 39.864615 -104.694291 180 5445ft 30kts
15-Apr-20 13:37 39.860425 -104.693202 90 5445ft 11kts
15-Apr-20 13:38 39.860407 -104.687369 92 5445ft 7kts
15-Apr-20 13:39 39.860355 -104.682266 84 5445ft 11kts
15-Apr-20 13:40 39.860220 -104.679278 132 5445ft 10kts
15-Apr-20 13:41 39.859399 -104.678489 180 5445ft 0kts
15-Apr-20 13:42 39.859399 -104.678489 180 5445ft 0kts

Navigation Log

Ident Type
Flight plan parsing failed, navigation log unavailable